EDT,Max TemperatureF,Mean TemperatureF,Min TemperatureF,Max Dew PointF,MeanDew PointF,Min DewpointF,Max Humidity, Mean Humidity, Min Humidity, Max Sea Level PressureIn, Mean Sea Level PressureIn, Min Sea Level PressureIn, Max VisibilityMiles, Mean VisibilityMiles, Min VisibilityMiles, Max Wind SpeedMPH, Mean Wind SpeedMPH, Max Gust SpeedMPH,PrecipitationIn, CloudCover, Events, WindDirDegrees
2014-3-1,75,70,65,63,59,54,81,67,53,30.19,30.13,30.07,10,10,10,13,7,20,0.00,1,,6
2014-3-2,80,75,69,65,63,60,84,69,54,30.19,30.12,30.08,10,10,10,16,10,21,0.00,0,,90
2014-3-3,80,75,69,68,65,61,84,71,58,30.09,30.05,30.01,10,10,10,13,6,16,0.00,1,,69
2014-3-4,80,74,67,69,67,64,93,78,62,30.06,30.02,29.99,10,10,10,12,6,15,0.00,3,,61
2014-3-5,80,77,74,71,68,66,84,76,67,30.03,29.99,29.94,10,10,10,15,8,18,0.00,1,,158
2014-3-6,81,75,69,73,68,66,90,82,74,29.99,29.92,29.87,10,8,1,31,13,41,0.82,6,Rain-Thunderstorm,259
2014-3-7,77,73,69,70,64,59,84,71,58,30.05,29.93,29.84,10,10,6,24,16,30,0.07,3,Rain,298
2014-3-8,72,68,63,60,58,55,84,73,61,30.15,30.09,30.01,10,10,10,14,6,18,0.00,4,,21
2014-3-9,78,71,63,64,62,59,93,78,62,30.19,30.13,30.09,10,10,10,10,4,16,0.00,2,,49
2014-3-10,78,72,66,66,64,62,93,78,62,30.13,30.08,30.01,10,10,10,13,4,17,0.00,3,,29
2014-3-11,79,73,66,68,66,63,93,79,64,30.04,29.95,29.88,10,10,10,15,7,18,0.00,0,,119
2014-3-12,81,76,71,73,70,67,82,75,67,29.93,29.89,29.84,10,8,1,20,11,25,1.15,4,Rain-Thunderstorm,240
2014-3-13,75,72,70,69,62,52,87,69,47,30.14,30.02,29.88,10,10,10,20,14,28,0.01,3,,349
2014-3-14,76,71,65,59,56,49,73,60,47,30.23,30.17,30.13,10,10,10,22,13,28,0.00,1,,73
2014-3-15,79,74,68,65,63,60,81,70,58,30.14,30.08,30.03,10,10,10,20,11,24,0.00,1,,78
2014-3-16,80,77,73,70,67,61,79,72,64,30.03,29.92,29.81,10,10,10,21,15,30,T,2,Rain,132
2014-3-17,82,79,76,74,72,70,88,81,74,29.85,29.79,29.75,10,10,10,23,15,28,0.00,2,,175
2014-3-18,79,75,70,73,67,61,85,77,68,30.04,29.91,29.78,10,10,2,25,13,32,0.31,7,Rain,331
2014-3-19,79,74,69,68,64,61,84,74,64,30.08,30.04,29.99,10,10,10,14,8,18,0.00,2,,12
2014-3-20,78,74,70,67,64,59,84,70,56,30.08,30.04,30.01,10,10,10,17,10,21,0.00,5,,345
2014-3-21,77,70,63,64,62,60,87,76,64,30.08,30.05,30.01,10,10,10,14,5,18,0.00,1,,328
2014-3-22,82,75,67,71,68,64,90,79,67,30.10,30.06,30.02,10,10,10,8,3,11,0.00,2,,107
2014-3-23,82,78,73,75,73,71,94,84,74,30.09,30.05,30.02,10,10,6,14,7,17,0.00,1,,264
2014-3-24,83,79,75,73,72,70,94,84,74,30.06,30.00,29.91,10,10,10,13,6,16,0.00,4,,2
2014-3-25,79,74,68,73,69,61,93,83,73,30.06,29.95,29.89,10,8,1,24,14,39,1.37,6,Rain-Thunderstorm,343
2014-3-26,71,67,63,58,52,45,68,57,45,30.23,30.16,30.06,10,10,10,23,15,33,0.00,0,,31
2014-3-27,78,74,69,65,61,55,73,67,60,30.26,30.19,30.12,10,10,10,24,16,31,0.00,3,,95
2014-3-28,81,78,74,72,69,63,87,78,68,30.17,30.08,30.02,10,10,10,23,16,28,0.00,2,,118
2014-3-29,82,77,72,75,73,67,94,87,79,30.09,30.03,29.98,10,10,10,30,10,41,T,3,Rain-Thunderstorm,145
2014-3-30,77,73,69,72,63,54,93,71,49,30.10,30.03,29.95,10,10,10,21,12,27,0.06,4,Rain,339
2014-3-31,77,72,67,64,58,52,73,61,49,30.14,30.10,30.05,10,10,10,16,11,21,0.00,0,,60